sensor_id;sensor_type;location;lat;lon;timestamp;temperature;humidity
59771;DHT22;45649;53.014;6.600;2023-04-24T00:00:11;11.90;99.90
59771;DHT22;45649;53.014;6.600;2023-04-24T00:02:44;11.90;99.90
59771;DHT22;45649;53.014;6.600;2023-04-24T00:05:16;11.90;99.90
59771;DHT22;45649;53.014;6.600;2023-04-24T00:07:44;11.90;99.90
59771;DHT22;45649;53.014;6.600;2023-04-24T00:10:10;11.90;99.90
59771;DHT22;45649;53.014;6.600;2023-04-24T00:12:37;11.90;99.90
59771;DHT22;45649;53.014;6.600;2023-04-24T00:15:04;11.90;99.90
59771;DHT22;45649;53.014;6.600;2023-04-24T00:17:30;11.90;99.90
59771;DHT22;45649;53.014;6.600;2023-04-24T00:19:56;11.80;99.90
59771;DHT22;45649;53.014;6.600;2023-04-24T00:22:28;11.80;99.90
59771;DHT22;45649;53.014;6.600;2023-04-24T00:24:54;11.80;99.90
59771;DHT22;45649;53.014;6.600;2023-04-24T00:27:20;11.80;99.90
59771;DHT22;45649;53.014;6.600;2023-04-24T00:29:45;11.70;99.90
59771;DHT22;45649;53.014;6.600;2023-04-24T00:32:11;11.70;99.90
59771;DHT22;45649;53.014;6.600;2023-04-24T00:34:37;11.70;99.90
59771;DHT22;45649;53.014;6.600;2023-04-24T00:37:03;11.60;99.90
59771;DHT22;45649;53.014;6.600;2023-04-24T00:39:28;11.70;99.90
59771;DHT22;45649;53.014;6.600;2023-04-24T00:41:54;11.60;99.90
59771;DHT22;45649;53.014;6.600;2023-04-24T00:44:20;11.50;99.90
59771;DHT22;45649;53.014;6.600;2023-04-24T00:46:47;11.50;99.90
59771;DHT22;45649;53.014;6.600;2023-04-24T00:49:18;11.50;99.90
59771;DHT22;45649;53.014;6.600;2023-04-24T00:51:44;11.50;99.90
59771;DHT22;45649;53.014;6.600;2023-04-24T00:54:12;11.50;99.90
59771;DHT22;45649;53.014;6.600;2023-04-24T00:56:37;11.50;99.90
59771;DHT22;45649;53.014;6.600;2023-04-24T00:59:03;11.60;99.90
59771;DHT22;45649;53.014;6.600;2023-04-24T01:01:30;11.50;99.90
59771;DHT22;45649;53.014;6.600;2023-04-24T01:03:57;11.60;99.90
59771;DHT22;45649;53.014;6.600;2023-04-24T01:06:23;11.60;99.90
59771;DHT22;45649;53.014;6.600;2023-04-24T01:08:52;11.60;99.90
59771;DHT22;45649;53.014;6.600;2023-04-24T01:11:19;11.60;99.90
59771;DHT22;45649;53.014;6.600;2023-04-24T01:13:46;11.60;99.90
59771;DHT22;45649;53.014;6.600;2023-04-24T01:16:13;11.60;99.90
59771;DHT22;45649;53.014;6.600;2023-04-24T01:18:38;11.60;99.90
59771;DHT22;45649;53.014;6.600;2023-04-24T01:21:05;11.60;99.90
59771;DHT22;45649;53.014;6.600;2023-04-24T01:23:32;11.60;99.90
59771;DHT22;45649;53.014;6.600;2023-04-24T01:25:58;11.60;99.90
59771;DHT22;45649;53.014;6.600;2023-04-24T01:28:24;11.60;99.90
59771;DHT22;45649;53.014;6.600;2023-04-24T01:30:49;11.60;99.90
59771;DHT22;45649;53.014;6.600;2023-04-24T01:33:15;11.60;99.90
59771;DHT22;45649;53.014;6.600;2023-04-24T01:35:42;11.60;99.90
59771;DHT22;45649;53.014;6.600;2023-04-24T01:38:08;11.60;99.90
59771;DHT22;45649;53.014;6.600;2023-04-24T01:40:34;11.60;99.90
59771;DHT22;45649;53.014;6.600;2023-04-24T01:43:00;11.60;99.90
59771;DHT22;45649;53.014;6.600;2023-04-24T01:45:26;11.60;99.90
59771;DHT22;45649;53.014;6.600;2023-04-24T01:47:51;11.50;99.90
59771;DHT22;45649;53.014;6.600;2023-04-24T01:50:18;11.50;99.90
59771;DHT22;45649;53.014;6.600;2023-04-24T01:52:44;11.60;99.90
59771;DHT22;45649;53.014;6.600;2023-04-24T01:55:10;11.60;99.90
59771;DHT22;45649;53.014;6.600;2023-04-24T01:57:36;11.60;99.90
59771;DHT22;45649;53.014;6.600;2023-04-24T02:00:02;11.60;99.90
59771;DHT22;45649;53.014;6.600;2023-04-24T02:02:30;11.60;99.90
59771;DHT22;45649;53.014;6.600;2023-04-24T02:04:57;11.60;99.90
59771;DHT22;45649;53.014;6.600;2023-04-24T02:07:22;11.60;99.90
59771;DHT22;45649;53.014;6.600;2023-04-24T02:09:48;11.60;99.90
59771;DHT22;45649;53.014;6.600;2023-04-24T02:12:15;11.60;99.90
59771;DHT22;45649;53.014;6.600;2023-04-24T02:14:43;11.60;99.90
59771;DHT22;45649;53.014;6.600;2023-04-24T02:17:09;11.50;99.90
59771;DHT22;45649;53.014;6.600;2023-04-24T02:19:35;11.50;99.90
59771;DHT22;45649;53.014;6.600;2023-04-24T02:22:01;11.50;99.90
59771;DHT22;45649;53.014;6.600;2023-04-24T02:24:26;11.40;99.90
59771;DHT22;45649;53.014;6.600;2023-04-24T02:26:52;11.40;99.90
59771;DHT22;45649;53.014;6.600;2023-04-24T02:29:18;11.50;99.90
59771;DHT22;45649;53.014;6.600;2023-04-24T02:31:43;11.50;99.90
59771;DHT22;45649;53.014;6.600;2023-04-24T02:34:09;11.40;99.90
59771;DHT22;45649;53.014;6.600;2023-04-24T02:36:35;11.50;99.90
59771;DHT22;45649;53.014;6.600;2023-04-24T02:39:01;11.40;99.90
59771;DHT22;45649;53.014;6.600;2023-04-24T02:41:27;11.40;99.90
59771;DHT22;45649;53.014;6.600;2023-04-24T02:44:00;11.30;99.90
59771;DHT22;45649;53.014;6.600;2023-04-24T02:46:26;11.30;99.90
59771;DHT22;45649;53.014;6.600;2023-04-24T02:48:52;11.30;99.90
59771;DHT22;45649;53.014;6.600;2023-04-24T02:51:18;11.30;99.90
59771;DHT22;45649;53.014;6.600;2023-04-24T02:53:43;11.20;99.90
59771;DHT22;45649;53.014;6.600;2023-04-24T02:56:09;11.30;99.90
59771;DHT22;45649;53.014;6.600;2023-04-24T02:58:37;11.30;99.90
59771;DHT22;45649;53.014;6.600;2023-04-24T03:01:03;11.30;99.90
59771;DHT22;45649;53.014;6.600;2023-04-24T03:03:29;11.30;99.90
59771;DHT22;45649;53.014;6.600;2023-04-24T03:05:55;11.30;99.90
59771;DHT22;45649;53.014;6.600;2023-04-24T03:08:21;11.20;99.90
59771;DHT22;45649;53.014;6.600;2023-04-24T03:10:46;11.20;99.90
59771;DHT22;45649;53.014;6.600;2023-04-24T03:13:12;11.20;99.90
59771;DHT22;45649;53.014;6.600;2023-04-24T03:15:38;11.20;99.90
59771;DHT22;45649;53.014;6.600;2023-04-24T03:18:03;11.20;99.90
59771;DHT22;45649;53.014;6.600;2023-04-24T03:20:29;11.20;99.90
59771;DHT22;45649;53.014;6.600;2023-04-24T03:22:55;11.20;99.90
59771;DHT22;45649;53.014;6.600;2023-04-24T03:25:22;11.20;99.90
59771;DHT22;45649;53.014;6.600;2023-04-24T03:27:48;11.20;99.90
59771;DHT22;45649;53.014;6.600;2023-04-24T03:30:14;11.20;99.90
59771;DHT22;45649;53.014;6.600;2023-04-24T03:32:39;11.20;99.90
59771;DHT22;45649;53.014;6.600;2023-04-24T03:35:06;11.20;99.90
59771;DHT22;45649;53.014;6.600;2023-04-24T03:37:33;11.20;99.90
59771;DHT22;45649;53.014;6.600;2023-04-24T03:39:59;11.20;99.90
59771;DHT22;45649;53.014;6.600;2023-04-24T03:42:25;11.20;99.90
59771;DHT22;45649;53.014;6.600;2023-04-24T03:44:51;11.10;99.90
59771;DHT22;45649;53.014;6.600;2023-04-24T03:47:16;11.10;99.90
59771;DHT22;45649;53.014;6.600;2023-04-24T03:49:42;11.20;99.90
59771;DHT22;45649;53.014;6.600;2023-04-24T03:52:08;11.10;99.90
59771;DHT22;45649;53.014;6.600;2023-04-24T03:54:33;11.10;99.90
59771;DHT22;45649;53.014;6.600;2023-04-24T03:56:59;11.10;99.90
59771;DHT22;45649;53.014;6.600;2023-04-24T03:59:25;11.10;99.90
59771;DHT22;45649;53.014;6.600;2023-04-24T04:01:51;11.10;99.90
59771;DHT22;45649;53.014;6.600;2023-04-24T04:04:17;11.10;99.90
59771;DHT22;45649;53.014;6.600;2023-04-24T04:06:43;11.10;99.90
59771;DHT22;45649;53.014;6.600;2023-04-24T04:09:09;11.00;99.90
59771;DHT22;45649;53.014;6.600;2023-04-24T04:11:36;11.10;99.90
59771;DHT22;45649;53.014;6.600;2023-04-24T04:14:02;11.00;99.90
59771;DHT22;45649;53.014;6.600;2023-04-24T04:16:27;11.00;99.90
59771;DHT22;45649;53.014;6.600;2023-04-24T04:18:53;11.00;99.90
59771;DHT22;45649;53.014;6.600;2023-04-24T04:21:19;11.00;99.90
59771;DHT22;45649;53.014;6.600;2023-04-24T04:23:45;10.90;99.90
59771;DHT22;45649;53.014;6.600;2023-04-24T04:26:11;10.90;99.90
59771;DHT22;45649;53.014;6.600;2023-04-24T04:28:38;10.80;99.90
59771;DHT22;45649;53.014;6.600;2023-04-24T04:31:05;10.80;99.90
59771;DHT22;45649;53.014;6.600;2023-04-24T04:33:31;10.80;99.90
59771;DHT22;45649;53.014;6.600;2023-04-24T04:35:57;10.80;99.90
59771;DHT22;45649;53.014;6.600;2023-04-24T04:38:23;10.80;99.90
59771;DHT22;45649;53.014;6.600;2023-04-24T04:40:50;10.80;99.90
59771;DHT22;45649;53.014;6.600;2023-04-24T04:43:15;10.80;99.90
59771;DHT22;45649;53.014;6.600;2023-04-24T04:45:41;10.80;99.90
59771;DHT22;45649;53.014;6.600;2023-04-24T04:48:09;10.80;99.90
59771;DHT22;45649;53.014;6.600;2023-04-24T04:50:38;10.80;99.90
59771;DHT22;45649;53.014;6.600;2023-04-24T04:53:04;10.90;99.90
59771;DHT22;45649;53.014;6.600;2023-04-24T04:55:29;10.90;99.90
59771;DHT22;45649;53.014;6.600;2023-04-24T04:57:55;10.90;99.90
59771;DHT22;45649;53.014;6.600;2023-04-24T05:00:21;10.80;99.90
59771;DHT22;45649;53.014;6.600;2023-04-24T05:02:51;10.80;99.90
59771;DHT22;45649;53.014;6.600;2023-04-24T05:05:17;10.80;99.90
59771;DHT22;45649;53.014;6.600;2023-04-24T05:07:43;11.00;99.90
59771;DHT22;45649;53.014;6.600;2023-04-24T05:10:09;10.90;99.90
59771;DHT22;45649;53.014;6.600;2023-04-24T05:12:35;10.80;99.90
59771;DHT22;45649;53.014;6.600;2023-04-24T05:15:01;10.80;99.90
59771;DHT22;45649;53.014;6.600;2023-04-24T05:17:26;10.70;99.90
59771;DHT22;45649;53.014;6.600;2023-04-24T05:19:52;10.70;99.90
59771;DHT22;45649;53.014;6.600;2023-04-24T05:22:18;10.70;99.90
59771;DHT22;45649;53.014;6.600;2023-04-24T05:24:46;10.70;99.90
59771;DHT22;45649;53.014;6.600;2023-04-24T05:27:13;10.70;99.90
59771;DHT22;45649;53.014;6.600;2023-04-24T05:29:39;10.70;99.90
59771;DHT22;45649;53.014;6.600;2023-04-24T05:32:05;10.70;99.90
59771;DHT22;45649;53.014;6.600;2023-04-24T05:34:31;10.80;99.90
59771;DHT22;45649;53.014;6.600;2023-04-24T05:36:57;10.70;99.90
59771;DHT22;45649;53.014;6.600;2023-04-24T05:39:23;10.70;99.90
59771;DHT22;45649;53.014;6.600;2023-04-24T05:41:50;10.80;99.90
59771;DHT22;45649;53.014;6.600;2023-04-24T05:44:16;10.80;99.90
59771;DHT22;45649;53.014;6.600;2023-04-24T05:46:42;10.80;99.90
59771;DHT22;45649;53.014;6.600;2023-04-24T05:49:08;10.90;99.90
59771;DHT22;45649;53.014;6.600;2023-04-24T05:51:34;10.90;99.90
59771;DHT22;45649;53.014;6.600;2023-04-24T05:53:59;11.00;99.90
59771;DHT22;45649;53.014;6.600;2023-04-24T05:56:26;10.90;99.90
59771;DHT22;45649;53.014;6.600;2023-04-24T05:58:52;11.00;99.90
59771;DHT22;45649;53.014;6.600;2023-04-24T06:01:18;11.00;99.90
59771;DHT22;45649;53.014;6.600;2023-04-24T06:03:45;11.10;99.90
59771;DHT22;45649;53.014;6.600;2023-04-24T06:06:10;11.10;99.90
59771;DHT22;45649;53.014;6.600;2023-04-24T06:08:36;11.10;99.90
59771;DHT22;45649;53.014;6.600;2023-04-24T06:11:02;11.10;99.90
59771;DHT22;45649;53.014;6.600;2023-04-24T06:13:28;11.10;99.90
59771;DHT22;45649;53.014;6.600;2023-04-24T06:15:53;11.10;99.90
59771;DHT22;45649;53.014;6.600;2023-04-24T06:18:19;11.10;99.90
59771;DHT22;45649;53.014;6.600;2023-04-24T06:20:46;11.10;99.90
59771;DHT22;45649;53.014;6.600;2023-04-24T06:23:12;11.20;99.90
59771;DHT22;45649;53.014;6.600;2023-04-24T06:25:38;11.10;99.90
59771;DHT22;45649;53.014;6.600;2023-04-24T06:28:04;11.10;99.90
59771;DHT22;45649;53.014;6.600;2023-04-24T06:30:30;11.10;99.90
59771;DHT22;45649;53.014;6.600;2023-04-24T06:32:56;11.00;99.90
59771;DHT22;45649;53.014;6.600;2023-04-24T06:35:22;11.00;99.90
59771;DHT22;45649;53.014;6.600;2023-04-24T06:37:47;11.00;99.90
59771;DHT22;45649;53.014;6.600;2023-04-24T06:40:13;11.00;99.90
59771;DHT22;45649;53.014;6.600;2023-04-24T06:42:40;10.90;99.90
59771;DHT22;45649;53.014;6.600;2023-04-24T06:45:05;10.90;99.90
59771;DHT22;45649;53.014;6.600;2023-04-24T06:47:31;10.90;99.90
59771;DHT22;45649;53.014;6.600;2023-04-24T06:49:57;10.90;99.90
59771;DHT22;45649;53.014;6.600;2023-04-24T06:52:23;10.90;99.90
59771;DHT22;45649;53.014;6.600;2023-04-24T06:54:49;10.90;99.90
59771;DHT22;45649;53.014;6.600;2023-04-24T06:57:15;10.90;99.90
59771;DHT22;45649;53.014;6.600;2023-04-24T06:59:42;10.90;99.90
59771;DHT22;45649;53.014;6.600;2023-04-24T07:02:08;10.90;99.90
59771;DHT22;45649;53.014;6.600;2023-04-24T07:04:33;10.90;99.90
59771;DHT22;45649;53.014;6.600;2023-04-24T07:06:59;10.90;99.90
59771;DHT22;45649;53.014;6.600;2023-04-24T07:09:25;11.00;99.90
59771;DHT22;45649;53.014;6.600;2023-04-24T07:11:51;11.00;99.90
59771;DHT22;45649;53.014;6.600;2023-04-24T07:14:18;10.90;99.90
59771;DHT22;45649;53.014;6.600;2023-04-24T07:16:44;11.00;99.90
59771;DHT22;45649;53.014;6.600;2023-04-24T07:19:11;11.00;99.90
59771;DHT22;45649;53.014;6.600;2023-04-24T07:21:37;10.90;99.90
59771;DHT22;45649;53.014;6.600;2023-04-24T07:24:02;10.90;99.90
59771;DHT22;45649;53.014;6.600;2023-04-24T07:26:30;10.90;99.90
59771;DHT22;45649;53.014;6.600;2023-04-24T07:28:55;10.90;99.90
59771;DHT22;45649;53.014;6.600;2023-04-24T07:31:21;10.80;99.90
59771;DHT22;45649;53.014;6.600;2023-04-24T07:33:48;10.90;99.90
59771;DHT22;45649;53.014;6.600;2023-04-24T07:36:14;10.90;99.90
59771;DHT22;45649;53.014;6.600;2023-04-24T07:38:45;10.90;99.90
59771;DHT22;45649;53.014;6.600;2023-04-24T07:41:12;10.90;99.90
59771;DHT22;45649;53.014;6.600;2023-04-24T07:43:37;10.90;99.90
59771;DHT22;45649;53.014;6.600;2023-04-24T07:46:03;10.80;99.90
59771;DHT22;45649;53.014;6.600;2023-04-24T07:48:29;10.80;99.90
59771;DHT22;45649;53.014;6.600;2023-04-24T07:50:54;10.80;99.90
59771;DHT22;45649;53.014;6.600;2023-04-24T07:53:20;10.80;99.90
59771;DHT22;45649;53.014;6.600;2023-04-24T07:55:46;10.80;99.90
59771;DHT22;45649;53.014;6.600;2023-04-24T07:58:12;10.80;99.90
59771;DHT22;45649;53.014;6.600;2023-04-24T08:00:37;10.80;99.90
59771;DHT22;45649;53.014;6.600;2023-04-24T08:03:03;10.70;99.90
59771;DHT22;45649;53.014;6.600;2023-04-24T08:05:29;10.70;99.90
59771;DHT22;45649;53.014;6.600;2023-04-24T08:07:55;10.60;99.90
59771;DHT22;45649;53.014;6.600;2023-04-24T08:10:22;10.60;99.90
59771;DHT22;45649;53.014;6.600;2023-04-24T08:12:48;10.60;99.90
59771;DHT22;45649;53.014;6.600;2023-04-24T08:15:14;10.50;99.90
59771;DHT22;45649;53.014;6.600;2023-04-24T08:17:40;10.50;99.90
59771;DHT22;45649;53.014;6.600;2023-04-24T08:20:06;10.50;99.90
59771;DHT22;45649;53.014;6.600;2023-04-24T08:22:35;10.50;99.90
59771;DHT22;45649;53.014;6.600;2023-04-24T08:25:01;10.50;99.90
59771;DHT22;45649;53.014;6.600;2023-04-24T08:27:27;10.40;99.90
59771;DHT22;45649;53.014;6.600;2023-04-24T08:29:54;10.40;99.90
59771;DHT22;45649;53.014;6.600;2023-04-24T08:32:20;10.40;99.90
59771;DHT22;45649;53.014;6.600;2023-04-24T08:34:45;10.40;99.90
59771;DHT22;45649;53.014;6.600;2023-04-24T08:37:11;10.40;99.90
59771;DHT22;45649;53.014;6.600;2023-04-24T08:39:37;10.50;99.90
59771;DHT22;45649;53.014;6.600;2023-04-24T08:42:05;10.40;99.90
59771;DHT22;45649;53.014;6.600;2023-04-24T08:44:34;10.30;99.90
59771;DHT22;45649;53.014;6.600;2023-04-24T08:47:01;10.30;99.90
59771;DHT22;45649;53.014;6.600;2023-04-24T08:49:28;10.20;99.90
59771;DHT22;45649;53.014;6.600;2023-04-24T08:51:54;10.20;99.90
59771;DHT22;45649;53.014;6.600;2023-04-24T08:54:21;10.10;99.90
59771;DHT22;45649;53.014;6.600;2023-04-24T08:56:48;10.10;99.90
59771;DHT22;45649;53.014;6.600;2023-04-24T08:59:17;10.20;99.90
59771;DHT22;45649;53.014;6.600;2023-04-24T09:01:45;10.20;99.90
59771;DHT22;45649;53.014;6.600;2023-04-24T09:04:11;10.10;99.90
59771;DHT22;45649;53.014;6.600;2023-04-24T09:06:40;10.10;99.90
59771;DHT22;45649;53.014;6.600;2023-04-24T09:09:06;10.10;99.90
59771;DHT22;45649;53.014;6.600;2023-04-24T09:11:32;10.00;99.90
59771;DHT22;45649;53.014;6.600;2023-04-24T09:13:58;10.00;99.90
59771;DHT22;45649;53.014;6.600;2023-04-24T09:16:25;10.00;99.90
59771;DHT22;45649;53.014;6.600;2023-04-24T09:18:52;9.90;99.90
59771;DHT22;45649;53.014;6.600;2023-04-24T09:21:20;9.90;99.90
59771;DHT22;45649;53.014;6.600;2023-04-24T09:23:46;9.90;99.90
59771;DHT22;45649;53.014;6.600;2023-04-24T09:26:14;9.90;99.90
59771;DHT22;45649;53.014;6.600;2023-04-24T09:28:40;10.00;99.90
59771;DHT22;45649;53.014;6.600;2023-04-24T09:31:13;10.00;99.90
59771;DHT22;45649;53.014;6.600;2023-04-24T09:34:02;10.00;99.90
59771;DHT22;45649;53.014;6.600;2023-04-24T09:39:06;10.00;99.90
59771;DHT22;45649;53.014;6.600;2023-04-24T09:44:17;10.10;99.90
59771;DHT22;45649;53.014;6.600;2023-04-24T09:46:45;10.10;99.90
59771;DHT22;45649;53.014;6.600;2023-04-24T09:49:15;10.20;99.90
59771;DHT22;45649;53.014;6.600;2023-04-24T09:51:42;10.20;99.90
59771;DHT22;45649;53.014;6.600;2023-04-24T09:54:14;10.10;99.90
59771;DHT22;45649;53.014;6.600;2023-04-24T09:56:49;10.10;99.90
59771;DHT22;45649;53.014;6.600;2023-04-24T09:59:19;10.10;99.90
59771;DHT22;45649;53.014;6.600;2023-04-24T10:01:45;10.10;99.90
59771;DHT22;45649;53.014;6.600;2023-04-24T10:04:25;10.10;99.90
59771;DHT22;45649;53.014;6.600;2023-04-24T10:06:55;10.10;99.90
59771;DHT22;45649;53.014;6.600;2023-04-24T10:09:23;10.10;99.90
59771;DHT22;45649;53.014;6.600;2023-04-24T10:11:51;10.10;99.90
59771;DHT22;45649;53.014;6.600;2023-04-24T10:14:23;10.10;99.90
59771;DHT22;45649;53.014;6.600;2023-04-24T10:16:51;10.10;99.90
59771;DHT22;45649;53.014;6.600;2023-04-24T10:19:18;10.20;99.90
59771;DHT22;45649;53.014;6.600;2023-04-24T10:21:46;10.20;99.90
59771;DHT22;45649;53.014;6.600;2023-04-24T10:24:17;10.30;99.90
59771;DHT22;45649;53.014;6.600;2023-04-24T10:26:44;10.30;99.90
59771;DHT22;45649;53.014;6.600;2023-04-24T10:29:12;10.40;99.90
59771;DHT22;45649;53.014;6.600;2023-04-24T10:31:39;10.30;99.90
59771;DHT22;45649;53.014;6.600;2023-04-24T10:34:06;10.40;99.90
59771;DHT22;45649;53.014;6.600;2023-04-24T10:36:33;10.30;99.90
59771;DHT22;45649;53.014;6.600;2023-04-24T10:39:02;10.40;99.90
59771;DHT22;45649;53.014;6.600;2023-04-24T10:41:30;10.40;99.90
59771;DHT22;45649;53.014;6.600;2023-04-24T10:44:07;10.40;99.90
59771;DHT22;45649;53.014;6.600;2023-04-24T10:46:33;10.40;99.90
59771;DHT22;45649;53.014;6.600;2023-04-24T10:48:58;10.40;99.90
59771;DHT22;45649;53.014;6.600;2023-04-24T10:51:53;10.40;99.90
59771;DHT22;45649;53.014;6.600;2023-04-24T10:54:48;10.50;99.90
59771;DHT22;45649;53.014;6.600;2023-04-24T11:00:12;10.50;99.90
59771;DHT22;45649;53.014;6.600;2023-04-24T11:02:39;10.40;99.90
59771;DHT22;45649;53.014;6.600;2023-04-24T11:05:06;10.40;99.90
59771;DHT22;45649;53.014;6.600;2023-04-24T11:08:14;10.40;99.90
59771;DHT22;45649;53.014;6.600;2023-04-24T11:10:45;10.40;99.90
59771;DHT22;45649;53.014;6.600;2023-04-24T11:13:16;10.40;99.90
59771;DHT22;45649;53.014;6.600;2023-04-24T11:15:42;10.40;99.90
59771;DHT22;45649;53.014;6.600;2023-04-24T11:18:14;10.50;99.90
59771;DHT22;45649;53.014;6.600;2023-04-24T11:20:44;10.50;99.90
59771;DHT22;45649;53.014;6.600;2023-04-24T11:23:12;10.50;99.90
59771;DHT22;45649;53.014;6.600;2023-04-24T11:25:39;10.50;99.90
59771;DHT22;45649;53.014;6.600;2023-04-24T11:28:05;10.50;99.90
59771;DHT22;45649;53.014;6.600;2023-04-24T11:30:32;10.50;99.90
59771;DHT22;45649;53.014;6.600;2023-04-24T11:33:05;10.50;99.90
59771;DHT22;45649;53.014;6.600;2023-04-24T11:35:36;10.50;99.90
59771;DHT22;45649;53.014;6.600;2023-04-24T11:38:04;10.50;99.90
59771;DHT22;45649;53.014;6.600;2023-04-24T11:40:31;10.40;99.90
59771;DHT22;45649;53.014;6.600;2023-04-24T11:42:59;10.50;99.90
59771;DHT22;45649;53.014;6.600;2023-04-24T11:45:30;10.60;99.90
59771;DHT22;45649;53.014;6.600;2023-04-24T11:47:56;10.70;99.90
59771;DHT22;45649;53.014;6.600;2023-04-24T11:50:25;10.80;99.90
59771;DHT22;45649;53.014;6.600;2023-04-24T11:52:52;10.80;99.90
59771;DHT22;45649;53.014;6.600;2023-04-24T11:57:46;10.70;99.90
59771;DHT22;45649;53.014;6.600;2023-04-24T12:00:20;10.60;99.80
59771;DHT22;45649;53.014;6.600;2023-04-24T12:02:46;10.60;98.70
59771;DHT22;45649;53.014;6.600;2023-04-24T12:05:28;10.60;98.90
59771;DHT22;45649;53.014;6.600;2023-04-24T12:07:56;10.50;97.60
59771;DHT22;45649;53.014;6.600;2023-04-24T12:10:27;10.40;97.90
59771;DHT22;45649;53.014;6.600;2023-04-24T12:12:53;10.30;96.90
59771;DHT22;45649;53.014;6.600;2023-04-24T12:15:20;10.20;97.30
59771;DHT22;45649;53.014;6.600;2023-04-24T12:17:47;10.20;97.40
59771;DHT22;45649;53.014;6.600;2023-04-24T12:20:14;10.20;97.00
59771;DHT22;45649;53.014;6.600;2023-04-24T12:22:54;10.20;97.20
59771;DHT22;45649;53.014;6.600;2023-04-24T12:25:27;10.20;96.70
59771;DHT22;45649;53.014;6.600;2023-04-24T12:28:13;10.20;96.80
59771;DHT22;45649;53.014;6.600;2023-04-24T12:30:57;10.30;96.80
59771;DHT22;45649;53.014;6.600;2023-04-24T12:33:25;10.30;97.00
59771;DHT22;45649;53.014;6.600;2023-04-24T12:35:52;10.40;97.30
59771;DHT22;45649;53.014;6.600;2023-04-24T12:38:26;10.50;97.70
59771;DHT22;45649;53.014;6.600;2023-04-24T12:41:02;10.50;98.00
59771;DHT22;45649;53.014;6.600;2023-04-24T12:43:29;10.60;97.70
59771;DHT22;45649;53.014;6.600;2023-04-24T12:45:55;10.60;97.20
59771;DHT22;45649;53.014;6.600;2023-04-24T12:48:21;10.70;97.00
59771;DHT22;45649;53.014;6.600;2023-04-24T12:50:47;10.80;96.70
59771;DHT22;45649;53.014;6.600;2023-04-24T12:53:14;10.80;96.90
59771;DHT22;45649;53.014;6.600;2023-04-24T12:55:40;10.80;97.10
59771;DHT22;45649;53.014;6.600;2023-04-24T12:58:06;10.80;96.80
59771;DHT22;45649;53.014;6.600;2023-04-24T13:00:32;10.80;96.80
59771;DHT22;45649;53.014;6.600;2023-04-24T13:02:58;10.60;96.70
59771;DHT22;45649;53.014;6.600;2023-04-24T13:05:24;10.60;98.60
59771;DHT22;45649;53.014;6.600;2023-04-24T13:07:50;10.50;99.50
59771;DHT22;45649;53.014;6.600;2023-04-24T13:10:16;10.60;99.90
59771;DHT22;45649;53.014;6.600;2023-04-24T13:12:41;10.60;99.90
59771;DHT22;45649;53.014;6.600;2023-04-24T13:15:10;10.70;99.90
59771;DHT22;45649;53.014;6.600;2023-04-24T13:17:36;10.80;99.90
59771;DHT22;45649;53.014;6.600;2023-04-24T13:20:02;10.70;99.90
59771;DHT22;45649;53.014;6.600;2023-04-24T13:22:28;10.60;99.40
59771;DHT22;45649;53.014;6.600;2023-04-24T13:24:54;10.60;99.90
59771;DHT22;45649;53.014;6.600;2023-04-24T13:27:19;10.60;98.90
59771;DHT22;45649;53.014;6.600;2023-04-24T13:29:45;10.60;99.10
59771;DHT22;45649;53.014;6.600;2023-04-24T13:32:12;10.60;98.90
59771;DHT22;45649;53.014;6.600;2023-04-24T13:34:37;10.50;98.70
59771;DHT22;45649;53.014;6.600;2023-04-24T13:37:03;10.50;99.30
59771;DHT22;45649;53.014;6.600;2023-04-24T13:39:29;10.50;99.10
59771;DHT22;45649;53.014;6.600;2023-04-24T13:41:55;10.50;98.60
59771;DHT22;45649;53.014;6.600;2023-04-24T13:44:22;10.50;98.60
59771;DHT22;45649;53.014;6.600;2023-04-24T13:46:49;10.60;98.50
59771;DHT22;45649;53.014;6.600;2023-04-24T13:49:15;10.70;97.60
59771;DHT22;45649;53.014;6.600;2023-04-24T13:51:42;10.70;96.80
59771;DHT22;45649;53.014;6.600;2023-04-24T13:54:08;10.80;96.10
59771;DHT22;45649;53.014;6.600;2023-04-24T13:56:33;10.90;96.10
59771;DHT22;45649;53.014;6.600;2023-04-24T13:58:59;10.90;96.50
59771;DHT22;45649;53.014;6.600;2023-04-24T14:01:25;10.90;95.00
59771;DHT22;45649;53.014;6.600;2023-04-24T14:03:52;10.80;95.40
59771;DHT22;45649;53.014;6.600;2023-04-24T14:06:18;10.80;95.90
59771;DHT22;45649;53.014;6.600;2023-04-24T14:08:45;10.70;95.60
59771;DHT22;45649;53.014;6.600;2023-04-24T14:11:11;10.70;95.80
59771;DHT22;45649;53.014;6.600;2023-04-24T14:13:37;10.80;95.70
59771;DHT22;45649;53.014;6.600;2023-04-24T14:16:04;10.70;96.00
59771;DHT22;45649;53.014;6.600;2023-04-24T14:18:30;10.70;95.90
59771;DHT22;45649;53.014;6.600;2023-04-24T14:20:55;10.60;96.50
59771;DHT22;45649;53.014;6.600;2023-04-24T14:23:22;10.60;97.00
59771;DHT22;45649;53.014;6.600;2023-04-24T14:25:49;10.60;96.00
59771;DHT22;45649;53.014;6.600;2023-04-24T14:28:20;10.50;96.20
59771;DHT22;45649;53.014;6.600;2023-04-24T14:30:47;10.50;96.20
59771;DHT22;45649;53.014;6.600;2023-04-24T14:33:14;10.50;96.70
59771;DHT22;45649;53.014;6.600;2023-04-24T14:35:40;10.50;96.80
59771;DHT22;45649;53.014;6.600;2023-04-24T14:38:10;10.70;95.70
59771;DHT22;45649;53.014;6.600;2023-04-24T14:40:36;10.60;96.60
59771;DHT22;45649;53.014;6.600;2023-04-24T14:43:08;10.50;97.60
59771;DHT22;45649;53.014;6.600;2023-04-24T14:45:34;10.30;98.70
59771;DHT22;45649;53.014;6.600;2023-04-24T14:48:00;10.30;99.20
59771;DHT22;45649;53.014;6.600;2023-04-24T14:50:26;10.30;99.90
59771;DHT22;45649;53.014;6.600;2023-04-24T14:52:55;10.30;99.90
59771;DHT22;45649;53.014;6.600;2023-04-24T14:55:27;10.20;99.90
59771;DHT22;45649;53.014;6.600;2023-04-24T14:57:53;10.20;99.90
59771;DHT22;45649;53.014;6.600;2023-04-24T15:00:19;10.20;99.90
59771;DHT22;45649;53.014;6.600;2023-04-24T15:02:45;10.20;99.90
59771;DHT22;45649;53.014;6.600;2023-04-24T15:05:11;10.20;99.90
59771;DHT22;45649;53.014;6.600;2023-04-24T15:07:38;10.20;99.90
59771;DHT22;45649;53.014;6.600;2023-04-24T15:10:04;10.10;99.90
59771;DHT22;45649;53.014;6.600;2023-04-24T15:12:30;10.10;99.90
59771;DHT22;45649;53.014;6.600;2023-04-24T15:14:57;10.10;99.90
59771;DHT22;45649;53.014;6.600;2023-04-24T15:17:23;10.10;99.90
59771;DHT22;45649;53.014;6.600;2023-04-24T15:19:49;10.20;99.90
59771;DHT22;45649;53.014;6.600;2023-04-24T15:22:15;10.20;99.90
59771;DHT22;45649;53.014;6.600;2023-04-24T15:24:40;10.20;99.90
59771;DHT22;45649;53.014;6.600;2023-04-24T15:27:09;10.10;99.90
59771;DHT22;45649;53.014;6.600;2023-04-24T15:29:35;10.20;99.90
59771;DHT22;45649;53.014;6.600;2023-04-24T15:32:01;10.20;99.90
59771;DHT22;45649;53.014;6.600;2023-04-24T15:34:27;10.20;99.90
59771;DHT22;45649;53.014;6.600;2023-04-24T15:36:53;10.10;99.90
59771;DHT22;45649;53.014;6.600;2023-04-24T15:39:22;10.10;99.90